KBQK

Brunswick Golden Isles Airport

Brunswick, Georgia, USA
METAR KBQK 150315Z AUTO 25006KT 10SM -RA SCT070 BKN090 26/21 A3008 RMK AO2
Observed Flight Rules
Aug-15 @ 03:15 UTC (20 minutes ago) Visual Flight Rules
Wind Visibility Clouds Conditions
250° at 6 knots 10 miles
  • Scattered at 7,000' AGL
  • Broken at 9,000' AGL
  • Light Rain
Temperatures Readings
Current 26°C / 79°F
Dewpoint 21°C / 70°F
Humidity 74%
Altimeter 30.08" Hg
Pressure 1019 hPa
Elevation 8
METAR KBQK 150315Z AUTO 25006KT 10SM -RA SCT070 BKN090 26/21 A3008 RMK AO2
Observed Flight Rules
Aug-15 @ 03:15 UTC
(20 minutes ago)
VFR
Wind Visibility
250° at 6 knots 10 miles
Clouds
  • Scattered at 7,000' AGL
  • Broken at 9,000' AGL
Conditions
  • Light Rain
Temperature Dewpoint
26°C / 79°F 21°C / 70°F
Humidity Altimeter Pressure
74% 30.08" Hg 1019 hPa